sensor_id;sensor_type;location;lat;lon;timestamp;pressure;altitude;pressure_sealevel;temperature;humidity
75617;BME280;64200;55.426;37.758;2023-02-03T00:00:53;98591.75;;;-0.69;73.00
75617;BME280;64200;55.426;37.758;2023-02-03T00:05:54;98579.97;;;-0.66;73.17
75617;BME280;64200;55.426;37.758;2023-02-03T00:10:55;98586.88;;;-0.58;72.73
75617;BME280;64200;55.426;37.758;2023-02-03T00:15:56;98582.91;;;-0.53;72.93
75617;BME280;64200;55.426;37.758;2023-02-03T00:20:56;98579.84;;;-0.59;73.10
75617;BME280;64200;55.426;37.758;2023-02-03T00:26:05;98581.22;;;-0.47;73.45
75617;BME280;64200;55.426;37.758;2023-02-03T00:31:13;98582.09;;;-0.54;72.51
75617;BME280;64200;55.426;37.758;2023-02-03T00:36:14;98589.25;;;-0.60;73.14
75617;BME280;64200;55.426;37.758;2023-02-03T00:41:15;98571.94;;;-0.53;73.53
75617;BME280;64200;55.426;37.758;2023-02-03T00:46:16;98588.13;;;-0.62;73.59
75617;BME280;64200;55.426;37.758;2023-02-03T00:51:16;98573.34;;;-0.45;72.55
75617;BME280;64200;55.426;37.758;2023-02-03T00:56:17;98573.03;;;-0.27;73.09
75617;BME280;64200;55.426;37.758;2023-02-03T01:01:17;98574.91;;;-0.44;73.24
75617;BME280;64200;55.426;37.758;2023-02-03T01:06:19;98570.72;;;-0.28;72.99
75617;BME280;64200;55.426;37.758;2023-02-03T01:11:22;98570.38;;;-0.30;72.58
75617;BME280;64200;55.426;37.758;2023-02-03T01:16:23;98575.84;;;-0.30;72.66
75617;BME280;64200;55.426;37.758;2023-02-03T01:21:25;98574.38;;;-0.35;73.05
75617;BME280;64200;55.426;37.758;2023-02-03T01:26:25;98566.59;;;-0.16;72.71
75617;BME280;64200;55.426;37.758;2023-02-03T01:31:32;98565.59;;;-0.26;73.08
75617;BME280;64200;55.426;37.758;2023-02-03T01:36:34;98559.00;;;-0.29;73.03
75617;BME280;64200;55.426;37.758;2023-02-03T01:41:36;98565.66;;;-0.30;73.67
75617;BME280;64200;55.426;37.758;2023-02-03T01:46:43;98574.38;;;-0.35;73.83
75617;BME280;64200;55.426;37.758;2023-02-03T01:51:46;98555.59;;;-0.37;73.72
75617;BME280;64200;55.426;37.758;2023-02-03T01:56:51;98560.59;;;-0.31;74.27
75617;BME280;64200;55.426;37.758;2023-02-03T02:01:53;98556.53;;;-0.23;73.91
75617;BME280;64200;55.426;37.758;2023-02-03T02:06:56;98552.63;;;-0.22;74.89
75617;BME280;64200;55.426;37.758;2023-02-03T02:11:57;98557.25;;;0.01;74.06
75617;BME280;64200;55.426;37.758;2023-02-03T02:33:56;98562.94;;;-0.10;74.63
75617;BME280;64200;55.426;37.758;2023-02-03T02:39:08;98553.34;;;0.02;74.03
75617;BME280;64200;55.426;37.758;2023-02-03T02:44:16;98555.19;;;-0.15;74.98
75617;BME280;64200;55.426;37.758;2023-02-03T02:49:26;98544.41;;;-0.02;74.02
75617;BME280;64200;55.426;37.758;2023-02-03T02:54:29;98555.16;;;0.09;73.84
75617;BME280;64200;55.426;37.758;2023-02-03T02:59:31;98553.00;;;0.00;74.58
75617;BME280;64200;55.426;37.758;2023-02-03T03:04:32;98549.19;;;0.14;73.88
75617;BME280;64200;55.426;37.758;2023-02-03T03:09:47;98547.34;;;0.07;74.33
75617;BME280;64200;55.426;37.758;2023-02-03T03:14:54;98550.44;;;0.09;74.47
75617;BME280;64200;55.426;37.758;2023-02-03T03:20:04;98545.59;;;0.17;74.72
75617;BME280;64200;55.426;37.758;2023-02-03T03:25:13;98555.72;;;0.20;75.01
75617;BME280;64200;55.426;37.758;2023-02-03T03:30:18;98551.28;;;0.26;74.25
75617;BME280;64200;55.426;37.758;2023-02-03T03:35:21;98558.19;;;0.34;74.14
75617;BME280;64200;55.426;37.758;2023-02-03T03:40:33;98556.72;;;0.30;74.72
75617;BME280;64200;55.426;37.758;2023-02-03T03:45:42;98557.63;;;0.23;74.98
75617;BME280;64200;55.426;37.758;2023-02-03T03:50:54;98547.75;;;0.46;73.77
75617;BME280;64200;55.426;37.758;2023-02-03T03:55:59;98551.00;;;0.41;73.61
75617;BME280;64200;55.426;37.758;2023-02-03T04:01:02;98551.28;;;0.46;74.29
75617;BME280;64200;55.426;37.758;2023-02-03T04:06:05;98558.03;;;0.42;74.32
75617;BME280;64200;55.426;37.758;2023-02-03T04:11:06;98553.69;;;0.24;74.66
75617;BME280;64200;55.426;37.758;2023-02-03T04:16:07;98565.19;;;0.35;74.20
75617;BME280;64200;55.426;37.758;2023-02-03T04:21:07;98544.94;;;0.29;74.63
75617;BME280;64200;55.426;37.758;2023-02-03T04:26:08;98537.84;;;0.32;74.65
75617;BME280;64200;55.426;37.758;2023-02-03T04:31:08;98557.97;;;0.25;74.94
75617;BME280;64200;55.426;37.758;2023-02-03T04:36:09;98554.66;;;0.34;75.51
75617;BME280;64200;55.426;37.758;2023-02-03T04:41:09;98543.47;;;0.45;74.50
75617;BME280;64200;55.426;37.758;2023-02-03T04:46:10;98564.06;;;0.53;74.96
75617;BME280;64200;55.426;37.758;2023-02-03T04:51:10;98561.72;;;0.51;74.23
75617;BME280;64200;55.426;37.758;2023-02-03T04:56:11;98565.19;;;0.56;74.32
75617;BME280;64200;55.426;37.758;2023-02-03T05:01:12;98561.25;;;0.57;74.43
75617;BME280;64200;55.426;37.758;2023-02-03T05:06:13;98553.19;;;0.66;74.85
75617;BME280;64200;55.426;37.758;2023-02-03T05:11:13;98562.00;;;0.57;75.05
75617;BME280;64200;55.426;37.758;2023-02-03T05:16:14;98559.00;;;0.51;74.99
75617;BME280;64200;55.426;37.758;2023-02-03T05:21:14;98559.84;;;0.48;75.50
75617;BME280;64200;55.426;37.758;2023-02-03T05:26:15;98558.25;;;0.67;75.17
75617;BME280;64200;55.426;37.758;2023-02-03T05:31:16;98563.75;;;0.67;74.74
75617;BME280;64200;55.426;37.758;2023-02-03T05:36:16;98568.47;;;0.67;75.47
75617;BME280;64200;55.426;37.758;2023-02-03T05:41:17;98567.19;;;0.72;75.21
75617;BME280;64200;55.426;37.758;2023-02-03T05:46:36;98562.56;;;0.68;75.29
75617;BME280;64200;55.426;37.758;2023-02-03T05:51:37;98571.91;;;0.71;75.45
75617;BME280;64200;55.426;37.758;2023-02-03T05:56:38;98561.94;;;0.61;76.07
75617;BME280;64200;55.426;37.758;2023-02-03T06:01:39;98560.25;;;0.67;75.68
75617;BME280;64200;55.426;37.758;2023-02-03T06:06:39;98576.16;;;0.92;74.79
75617;BME280;64200;55.426;37.758;2023-02-03T06:11:40;98580.53;;;0.90;75.14
75617;BME280;64200;55.426;37.758;2023-02-03T06:16:41;98566.28;;;0.95;74.53
75617;BME280;64200;55.426;37.758;2023-02-03T06:21:42;98578.47;;;0.94;75.23
75617;BME280;64200;55.426;37.758;2023-02-03T06:26:42;98573.38;;;0.76;75.32
75617;BME280;64200;55.426;37.758;2023-02-03T06:31:43;98577.88;;;1.02;75.09
75617;BME280;64200;55.426;37.758;2023-02-03T06:36:43;98582.41;;;0.93;75.55
75617;BME280;64200;55.426;37.758;2023-02-03T06:41:44;98575.75;;;1.10;74.97
75617;BME280;64200;55.426;37.758;2023-02-03T06:46:45;98578.81;;;1.12;74.03
75617;BME280;64200;55.426;37.758;2023-02-03T06:51:45;98567.78;;;1.32;74.72
75617;BME280;64200;55.426;37.758;2023-02-03T06:56:46;98566.56;;;1.33;74.17
75617;BME280;64200;55.426;37.758;2023-02-03T07:01:46;98572.06;;;1.50;73.49
75617;BME280;64200;55.426;37.758;2023-02-03T07:06:47;98573.75;;;1.44;73.50
75617;BME280;64200;55.426;37.758;2023-02-03T07:11:47;98573.34;;;1.62;74.35
75617;BME280;64200;55.426;37.758;2023-02-03T07:16:48;98583.13;;;1.46;73.31
75617;BME280;64200;55.426;37.758;2023-02-03T07:21:48;98578.06;;;1.45;73.33
75617;BME280;64200;55.426;37.758;2023-02-03T07:26:48;98575.97;;;1.65;72.99
75617;BME280;64200;55.426;37.758;2023-02-03T07:31:49;98583.22;;;1.59;72.79
75617;BME280;64200;55.426;37.758;2023-02-03T07:36:50;98562.97;;;1.36;73.97
75617;BME280;64200;55.426;37.758;2023-02-03T07:41:50;98572.47;;;1.65;72.80
75617;BME280;64200;55.426;37.758;2023-02-03T07:46:50;98563.44;;;1.64;72.66
75617;BME280;64200;55.426;37.758;2023-02-03T07:51:51;98557.44;;;1.53;72.50
75617;BME280;64200;55.426;37.758;2023-02-03T07:56:51;98560.19;;;1.69;72.57
75617;BME280;64200;55.426;37.758;2023-02-03T08:01:53;98560.44;;;1.75;73.13
75617;BME280;64200;55.426;37.758;2023-02-03T08:06:55;98566.31;;;1.90;72.94
75617;BME280;64200;55.426;37.758;2023-02-03T08:11:55;98559.56;;;1.78;72.41
75617;BME280;64200;55.426;37.758;2023-02-03T08:16:56;98568.00;;;2.00;72.10
75617;BME280;64200;55.426;37.758;2023-02-03T08:21:57;98566.03;;;2.01;71.75
75617;BME280;64200;55.426;37.758;2023-02-03T08:27:00;98566.31;;;1.90;72.17
75617;BME280;64200;55.426;37.758;2023-02-03T08:32:00;98569.88;;;1.74;72.84
75617;BME280;64200;55.426;37.758;2023-02-03T08:37:01;98554.38;;;1.80;72.45
75617;BME280;64200;55.426;37.758;2023-02-03T08:42:02;98562.94;;;2.28;71.63
75617;BME280;64200;55.426;37.758;2023-02-03T08:47:04;98553.16;;;2.40;70.72
75617;BME280;64200;55.426;37.758;2023-02-03T08:52:07;98564.44;;;2.16;71.16
75617;BME280;64200;55.426;37.758;2023-02-03T08:57:08;98566.44;;;2.28;71.14
75617;BME280;64200;55.426;37.758;2023-02-03T09:02:13;98557.00;;;2.42;71.17
75617;BME280;64200;55.426;37.758;2023-02-03T09:07:14;98562.63;;;2.39;71.17
75617;BME280;64200;55.426;37.758;2023-02-03T09:12:16;98551.66;;;2.52;70.05
75617;BME280;64200;55.426;37.758;2023-02-03T09:17:16;98557.56;;;2.37;70.26
75617;BME280;64200;55.426;37.758;2023-02-03T09:22:17;98550.97;;;2.48;70.19
75617;BME280;64200;55.426;37.758;2023-02-03T09:27:17;98559.13;;;2.51;69.79
75617;BME280;64200;55.426;37.758;2023-02-03T09:32:18;98552.72;;;2.41;70.03
75617;BME280;64200;55.426;37.758;2023-02-03T09:37:18;98542.06;;;2.56;70.29
75617;BME280;64200;55.426;37.758;2023-02-03T09:42:43;98548.22;;;2.48;69.41
75617;BME280;64200;55.426;37.758;2023-02-03T09:47:51;98547.66;;;2.53;69.46
75617;BME280;64200;55.426;37.758;2023-02-03T09:52:54;98553.53;;;2.80;68.62
75617;BME280;64200;55.426;37.758;2023-02-03T09:58:09;98544.41;;;2.96;68.62
75617;BME280;64200;55.426;37.758;2023-02-03T10:03:33;98549.97;;;3.31;68.29
75617;BME280;64200;55.426;37.758;2023-02-03T10:19:57;98545.97;;;3.80;66.08
75617;BME280;64200;55.426;37.758;2023-02-03T10:25:04;98552.72;;;3.79;64.67
75617;BME280;64200;55.426;37.758;2023-02-03T10:30:22;98551.03;;;3.60;65.77
75617;BME280;64200;55.426;37.758;2023-02-03T10:35:34;98532.28;;;4.12;64.49
75617;BME280;64200;55.426;37.758;2023-02-03T10:40:36;98543.69;;;4.23;63.67
75617;BME280;64200;55.426;37.758;2023-02-03T10:45:37;98530.69;;;4.24;62.81
75617;BME280;64200;55.426;37.758;2023-02-03T10:50:45;98532.91;;;4.16;61.78
75617;BME280;64200;55.426;37.758;2023-02-03T11:01:43;98523.34;;;3.85;62.97
75617;BME280;64200;55.426;37.758;2023-02-03T11:12:15;98509.84;;;4.63;63.32
75617;BME280;64200;55.426;37.758;2023-02-03T11:22:36;98502.88;;;3.74;61.07
75617;BME280;64200;55.426;37.758;2023-02-03T11:27:38;98511.34;;;3.79;61.31
75617;BME280;64200;55.426;37.758;2023-02-03T11:32:40;98525.34;;;3.85;61.92
75617;BME280;64200;55.426;37.758;2023-02-03T11:37:47;98515.31;;;3.78;62.06
75617;BME280;64200;55.426;37.758;2023-02-03T11:53:36;98527.28;;;3.62;62.07
75617;BME280;64200;55.426;37.758;2023-02-03T12:09:44;98512.75;;;3.62;62.83
75617;BME280;64200;55.426;37.758;2023-02-03T12:31:01;98519.16;;;2.85;65.34
75617;BME280;64200;55.426;37.758;2023-02-03T12:36:14;98505.63;;;2.65;65.93
75617;BME280;64200;55.426;37.758;2023-02-03T12:41:20;98512.44;;;2.60;66.06
75617;BME280;64200;55.426;37.758;2023-02-03T12:51:41;98513.66;;;2.72;67.04
75617;BME280;64200;55.426;37.758;2023-02-03T12:56:46;98516.63;;;2.52;67.93
75617;BME280;64200;55.426;37.758;2023-02-03T13:02:08;98507.81;;;2.44;67.96
75617;BME280;64200;55.426;37.758;2023-02-03T13:12:40;98518.88;;;2.15;69.84
75617;BME280;64200;55.426;37.758;2023-02-03T13:17:42;98510.41;;;2.22;69.95
75617;BME280;64200;55.426;37.758;2023-02-03T13:22:46;98513.94;;;2.23;69.79
75617;BME280;64200;55.426;37.758;2023-02-03T13:43:46;98520.44;;;2.29;69.69
75617;BME280;64200;55.426;37.758;2023-02-03T13:48:48;98506.06;;;2.08;70.36
75617;BME280;64200;55.426;37.758;2023-02-03T13:53:50;98509.81;;;2.02;71.02
75617;BME280;64200;55.426;37.758;2023-02-03T13:59:05;98503.31;;;1.96;70.73
75617;BME280;64200;55.426;37.758;2023-02-03T14:04:08;98507.84;;;1.73;72.41
75617;BME280;64200;55.426;37.758;2023-02-03T14:19:55;98510.53;;;1.89;72.11
75617;BME280;64200;55.426;37.758;2023-02-03T14:24:57;98504.00;;;1.70;72.54
75617;BME280;64200;55.426;37.758;2023-02-03T14:30:10;98503.22;;;1.70;73.13
75617;BME280;64200;55.426;37.758;2023-02-03T14:35:19;98501.56;;;1.43;73.49
75617;BME280;64200;55.426;37.758;2023-02-03T14:40:58;98502.91;;;1.51;73.58
75617;BME280;64200;55.426;37.758;2023-02-03T14:46:32;98516.31;;;1.49;74.27
75617;BME280;64200;55.426;37.758;2023-02-03T14:56:59;98524.28;;;1.60;72.76
75617;BME280;64200;55.426;37.758;2023-02-03T15:02:23;98504.94;;;1.64;72.96
75617;BME280;64200;55.426;37.758;2023-02-03T15:07:41;98520.63;;;1.34;74.96
75617;BME280;64200;55.426;37.758;2023-02-03T15:12:49;98512.53;;;1.43;74.22
75617;BME280;64200;55.426;37.758;2023-02-03T15:17:52;98518.19;;;1.52;74.11
75617;BME280;64200;55.426;37.758;2023-02-03T15:22:54;98510.81;;;1.49;74.05
75617;BME280;64200;55.426;37.758;2023-02-03T15:28:12;98528.59;;;1.45;73.96
75617;BME280;64200;55.426;37.758;2023-02-03T15:33:18;98517.59;;;1.45;74.19
75617;BME280;64200;55.426;37.758;2023-02-03T15:38:26;98536.38;;;1.63;73.75
75617;BME280;64200;55.426;37.758;2023-02-03T15:43:36;98527.66;;;1.51;73.77
75617;BME280;64200;55.426;37.758;2023-02-03T15:48:51;98521.81;;;1.49;73.90
75617;BME280;64200;55.426;37.758;2023-02-03T15:54:16;98530.44;;;1.64;73.39
75617;BME280;64200;55.426;37.758;2023-02-03T15:59:29;98531.19;;;1.81;73.06
75617;BME280;64200;55.426;37.758;2023-02-03T16:04:31;98537.88;;;1.80;73.22
75617;BME280;64200;55.426;37.758;2023-02-03T16:09:38;98538.69;;;1.81;72.09
75617;BME280;64200;55.426;37.758;2023-02-03T16:14:42;98546.50;;;1.82;72.95
75617;BME280;64200;55.426;37.758;2023-02-03T16:19:43;98528.53;;;1.78;71.98
75617;BME280;64200;55.426;37.758;2023-02-03T16:24:50;98548.31;;;1.72;71.92
75617;BME280;64200;55.426;37.758;2023-02-03T16:35:14;98539.78;;;1.83;71.78
75617;BME280;64200;55.426;37.758;2023-02-03T16:40:33;98547.13;;;1.73;72.56
75617;BME280;64200;55.426;37.758;2023-02-03T16:45:54;98549.13;;;1.86;71.48
75617;BME280;64200;55.426;37.758;2023-02-03T16:51:15;98543.97;;;1.88;72.04
75617;BME280;64200;55.426;37.758;2023-02-03T16:56:16;98548.69;;;1.87;72.12
75617;BME280;64200;55.426;37.758;2023-02-03T17:01:18;98541.66;;;1.86;71.73
75617;BME280;64200;55.426;37.758;2023-02-03T17:06:18;98551.16;;;1.69;72.17
75617;BME280;64200;55.426;37.758;2023-02-03T17:11:21;98557.69;;;1.75;71.97
75617;BME280;64200;55.426;37.758;2023-02-03T17:16:25;98560.31;;;1.79;71.61
75617;BME280;64200;55.426;37.758;2023-02-03T17:21:27;98552.31;;;1.84;71.41
75617;BME280;64200;55.426;37.758;2023-02-03T17:26:28;98558.53;;;2.01;70.33
75617;BME280;64200;55.426;37.758;2023-02-03T17:31:29;98559.41;;;1.98;70.85
75617;BME280;64200;55.426;37.758;2023-02-03T17:36:30;98566.78;;;2.01;71.14
75617;BME280;64200;55.426;37.758;2023-02-03T17:41:30;98568.78;;;2.01;70.81
75617;BME280;64200;55.426;37.758;2023-02-03T17:46:31;98570.38;;;1.85;70.86
75617;BME280;64200;55.426;37.758;2023-02-03T17:51:33;98572.75;;;1.83;70.60
75617;BME280;64200;55.426;37.758;2023-02-03T17:56:33;98569.59;;;1.85;71.13
75617;BME280;64200;55.426;37.758;2023-02-03T18:01:34;98573.13;;;1.85;71.26
75617;BME280;64200;55.426;37.758;2023-02-03T18:06:35;98581.03;;;1.67;71.64
75617;BME280;64200;55.426;37.758;2023-02-03T18:11:36;98579.59;;;1.62;72.00
75617;BME280;64200;55.426;37.758;2023-02-03T18:16:38;98590.31;;;1.73;71.98
75617;BME280;64200;55.426;37.758;2023-02-03T18:21:41;98587.75;;;1.66;72.57
75617;BME280;64200;55.426;37.758;2023-02-03T18:26:48;98588.75;;;1.88;72.10
75617;BME280;64200;55.426;37.758;2023-02-03T18:31:49;98577.84;;;1.85;72.00
75617;BME280;64200;55.426;37.758;2023-02-03T18:36:49;98595.72;;;1.77;71.57
75617;BME280;64200;55.426;37.758;2023-02-03T18:41:50;98596.16;;;1.75;72.00
75617;BME280;64200;55.426;37.758;2023-02-03T18:46:52;98592.28;;;1.72;72.20
75617;BME280;64200;55.426;37.758;2023-02-03T18:51:52;98598.31;;;1.67;72.08
75617;BME280;64200;55.426;37.758;2023-02-03T18:56:53;98602.16;;;1.70;72.12
75617;BME280;64200;55.426;37.758;2023-02-03T19:01:53;98613.00;;;1.61;72.21
75617;BME280;64200;55.426;37.758;2023-02-03T19:06:54;98604.69;;;1.48;72.24
75617;BME280;64200;55.426;37.758;2023-02-03T19:11:54;98613.19;;;1.53;72.94
75617;BME280;64200;55.426;37.758;2023-02-03T19:16:57;98617.13;;;1.52;73.17
75617;BME280;64200;55.426;37.758;2023-02-03T19:21:58;98621.16;;;1.64;73.47
75617;BME280;64200;55.426;37.758;2023-02-03T19:26:58;98622.19;;;1.54;72.96
75617;BME280;64200;55.426;37.758;2023-02-03T19:31:59;98623.56;;;1.46;73.94
75617;BME280;64200;55.426;37.758;2023-02-03T19:36:59;98614.47;;;1.32;73.87
75617;BME280;64200;55.426;37.758;2023-02-03T19:42:00;98623.31;;;1.23;74.08
75617;BME280;64200;55.426;37.758;2023-02-03T19:47:01;98614.47;;;1.32;74.16
75617;BME280;64200;55.426;37.758;2023-02-03T19:52:03;98637.91;;;1.37;73.52
75617;BME280;64200;55.426;37.758;2023-02-03T19:57:04;98634.47;;;1.49;73.73
75617;BME280;64200;55.426;37.758;2023-02-03T20:02:05;98632.53;;;1.50;73.83
75617;BME280;64200;55.426;37.758;2023-02-03T20:07:05;98637.31;;;1.62;72.89
75617;BME280;64200;55.426;37.758;2023-02-03T20:12:06;98632.09;;;1.51;72.59
75617;BME280;64200;55.426;37.758;2023-02-03T20:17:07;98643.69;;;1.43;73.11
75617;BME280;64200;55.426;37.758;2023-02-03T20:22:07;98646.25;;;1.33;72.80
75617;BME280;64200;55.426;37.758;2023-02-03T20:27:08;98650.63;;;1.31;72.85
75617;BME280;64200;55.426;37.758;2023-02-03T20:32:11;98647.06;;;1.30;73.52
75617;BME280;64200;55.426;37.758;2023-02-03T20:37:11;98666.41;;;1.27;73.56
75617;BME280;64200;55.426;37.758;2023-02-03T20:42:14;98671.13;;;1.26;73.95
75617;BME280;64200;55.426;37.758;2023-02-03T20:47:16;98672.31;;;1.25;73.59
75617;BME280;64200;55.426;37.758;2023-02-03T20:52:19;98671.16;;;1.06;73.99
75617;BME280;64200;55.426;37.758;2023-02-03T20:57:19;98664.63;;;1.00;73.70
75617;BME280;64200;55.426;37.758;2023-02-03T21:02:23;98681.56;;;1.15;73.28
75617;BME280;64200;55.426;37.758;2023-02-03T21:07:33;98675.53;;;1.03;73.08
75617;BME280;64200;55.426;37.758;2023-02-03T21:12:33;98680.84;;;0.94;73.79
75617;BME280;64200;55.426;37.758;2023-02-03T21:17:34;98684.19;;;1.02;73.79
75617;BME280;64200;55.426;37.758;2023-02-03T21:22:35;98679.41;;;1.06;73.14
75617;BME280;64200;55.426;37.758;2023-02-03T21:27:35;98689.50;;;0.93;73.26
75617;BME280;64200;55.426;37.758;2023-02-03T21:32:37;98691.91;;;0.91;73.23
75617;BME280;64200;55.426;37.758;2023-02-03T21:37:39;98699.00;;;0.88;73.38
75617;BME280;64200;55.426;37.758;2023-02-03T21:42:40;98701.19;;;0.97;72.88
75617;BME280;64200;55.426;37.758;2023-02-03T21:47:42;98709.47;;;1.13;72.19
75617;BME280;64200;55.426;37.758;2023-02-03T21:52:43;98707.47;;;1.34;72.26
75617;BME280;64200;55.426;37.758;2023-02-03T21:57:46;98708.34;;;1.47;71.43
75617;BME280;64200;55.426;37.758;2023-02-03T22:02:55;98705.34;;;1.58;70.83
75617;BME280;64200;55.426;37.758;2023-02-03T22:07:58;98717.19;;;1.55;71.10
75617;BME280;64200;55.426;37.758;2023-02-03T22:12:58;98718.66;;;1.60;71.55
75617;BME280;64200;55.426;37.758;2023-02-03T22:17:59;98720.38;;;1.70;70.61
75617;BME280;64200;55.426;37.758;2023-02-03T22:22:59;98715.75;;;1.67;71.17
75617;BME280;64200;55.426;37.758;2023-02-03T22:28:00;98722.69;;;1.71;70.55
75617;BME280;64200;55.426;37.758;2023-02-03T22:33:00;98718.22;;;1.78;71.55
75617;BME280;64200;55.426;37.758;2023-02-03T22:38:01;98723.22;;;1.66;71.17
75617;BME280;64200;55.426;37.758;2023-02-03T22:43:02;98734.56;;;1.68;71.21
75617;BME280;64200;55.426;37.758;2023-02-03T22:48:03;98735.34;;;1.69;71.10
75617;BME280;64200;55.426;37.758;2023-02-03T22:53:04;98735.34;;;1.85;71.81
75617;BME280;64200;55.426;37.758;2023-02-03T22:58:06;98733.47;;;1.82;70.90
75617;BME280;64200;55.426;37.758;2023-02-03T23:03:06;98723.66;;;1.81;71.12
75617;BME280;64200;55.426;37.758;2023-02-03T23:08:07;98728.34;;;1.64;70.46
75617;BME280;64200;55.426;37.758;2023-02-03T23:13:07;98729.06;;;1.68;71.52
75617;BME280;64200;55.426;37.758;2023-02-03T23:18:08;98728.56;;;1.57;71.06
75617;BME280;64200;55.426;37.758;2023-02-03T23:23:08;98735.47;;;1.45;70.98
75617;BME280;64200;55.426;37.758;2023-02-03T23:28:09;98735.47;;;1.45;71.04
75617;BME280;64200;55.426;37.758;2023-02-03T23:33:09;98741.22;;;1.51;71.21
75617;BME280;64200;55.426;37.758;2023-02-03T23:38:10;98752.59;;;1.53;71.29
75617;BME280;64200;55.426;37.758;2023-02-03T23:43:10;98751.53;;;1.47;71.18
75617;BME280;64200;55.426;37.758;2023-02-03T23:48:11;98750.91;;;1.39;70.99
75617;BME280;64200;55.426;37.758;2023-02-03T23:53:12;98756.16;;;1.33;70.85
75617;BME280;64200;55.426;37.758;2023-02-03T23:58:12;98753.16;;;1.44;70.56
